»·PEaware :: CFLXM CYYZ-CYEG

CFLXM :: CYYZ-CYEG

FLIGHT INFORMATION

Flight Status: Arrived
Operator: Unknown
More flights by this operator :: More flights under this callsign
Pilot: Lester F. (25731)
Aircraft: Cessna 700 Citation Longitude
(C700)
More flights by this aircraft type
Origin: CYYZ Toronto/Pearson Intl
Canada
Destination: CYEG Edmonton Intl
Canada
More flights between these airports :: More routes between these airports
Route: KEDSI DUVKO AVSEP NUGOP PEPMA GOPAK NAKAL OTNIK CFKJR SRADE AVALE KJNGG YQT MEMRO 52N00 ABANN RESAX RUBSU GABET DUDKO GABET ONGUL
File this flight plan on PilotEdge
Remarks:
Altitude:
(Current/Filed)
16,000ft
Speed:
(Current/Filed)
455kts
Departed: 28-Oct-20 12:48 PM
Arrived: 28-Oct-20 05:51 PM
Distance/Time
Traveled:
1451nm/5:02
Distance/Time
To Go:
Arrived

Flight Plot

Page will automatically refresh every two minutes.

Flight plan parsing failed; only flown route is shown


Map Options




Map Legend


Flown Route
Filed Route
Departure Airport
Arrival Airport
Navaid (VOR, NDB)
Fix

Horizontal Profiles

Position Reports

Time Latitude Longitude Heading Altitude Ground
Speed
28-Oct-20 12:27 43.686333 -79.628178 150 555ft 0kts
28-Oct-20 12:28 43.686334 -79.628178 150 554ft 0kts
28-Oct-20 12:29 43.686334 -79.628178 150 554ft 0kts
28-Oct-20 12:30 43.686334 -79.628178 150 554ft 0kts
28-Oct-20 12:31 43.686334 -79.628178 150 554ft 0kts
28-Oct-20 12:32 43.686334 -79.628178 150 554ft 0kts
28-Oct-20 12:33 43.686334 -79.628178 150 554ft 0kts
28-Oct-20 12:34 43.686334 -79.628178 150 554ft 0kts
28-Oct-20 12:34 43.686669 -79.628237 217 554ft 0kts
28-Oct-20 12:36 43.686501 -79.629100 269 555ft 8kts
28-Oct-20 12:36 43.686979 -79.631800 316 555ft 11kts
28-Oct-20 12:38 43.686992 -79.634785 226 557ft 8kts
28-Oct-20 12:38 43.685959 -79.637438 318 556ft 11kts
28-Oct-20 12:40 43.687726 -79.641316 260 557ft 9kts
28-Oct-20 12:40 43.686915 -79.645465 255 553ft 18kts
28-Oct-20 12:41 43.686531 -79.651824 225 556ft 15kts
28-Oct-20 12:42 43.683177 -79.654274 225 557ft 12kts
28-Oct-20 12:43 43.681033 -79.657373 226 559ft 9kts
28-Oct-20 12:44 43.678791 -79.660631 226 562ft 14kts
28-Oct-20 12:45 43.675589 -79.665211 209 566ft 12kts
28-Oct-20 12:46 43.674473 -79.663577 56 564ft 7kts
28-Oct-20 12:47 43.700464 -79.623993 46 2337ft 272kts
28-Oct-20 12:48 43.760281 -79.564426 15 4223ft 220kts
28-Oct-20 12:49 43.802494 -79.595586 303 5280ft 186kts
28-Oct-20 12:50 43.829255 -79.665482 274 6004ft 238kts
28-Oct-20 12:51 43.819616 -79.758769 257 5996ft 241kts
28-Oct-20 12:52 43.807368 -79.837086 259 6336ft 171kts
28-Oct-20 12:53 43.823929 -79.912634 306 8444ft 250kts
28-Oct-20 12:54 43.865221 -79.984848 301 10423ft 224kts
28-Oct-20 12:55 43.903451 -80.053575 299 12447ft 225kts
28-Oct-20 12:56 43.943546 -80.126249 297 14003ft 236kts
28-Oct-20 12:57 43.982443 -80.198242 297 15740ft 238kts
28-Oct-20 12:58 44.026091 -80.278905 298 16009ft 286kts
28-Oct-20 12:59 44.077126 -80.373512 299 16011ft 322kts
28-Oct-20 13:00 44.130784 -80.475748 297 15999ft 327kts
28-Oct-20 13:01 44.193781 -80.569270 302 15991ft 328kts
28-Oct-20 13:02 44.255995 -80.662265 303 15994ft 328kts
28-Oct-20 13:03 44.318095 -80.755348 304 15993ft 327kts
28-Oct-20 13:04 44.379885 -80.848118 303 16000ft 327kts
28-Oct-20 13:05 44.441646 -80.941127 303 15993ft 327kts
28-Oct-20 13:06 44.503406 -81.034457 303 15987ft 327kts
28-Oct-20 13:07 44.564917 -81.127706 303 15990ft 326kts
28-Oct-20 13:08 44.626435 -81.221239 303 15988ft 327kts
28-Oct-20 13:09 44.687894 -81.315030 303 15991ft 327kts
28-Oct-20 13:10 44.749347 -81.409102 303 15986ft 327kts
28-Oct-20 13:11 44.810485 -81.503017 302 15989ft 326kts
28-Oct-20 13:12 44.871687 -81.597357 302 15991ft 326kts
28-Oct-20 13:13 44.932774 -81.691830 302 15993ft 327kts
28-Oct-20 13:14 44.994840 -81.785392 307 15998ft 332kts
28-Oct-20 13:15 45.071626 -81.861582 322 16001ft 350kts
28-Oct-20 13:16 45.154490 -81.930216 320 16004ft 348kts
28-Oct-20 13:17 45.237541 -81.998810 319 16007ft 347kts
28-Oct-20 13:18 45.320551 -82.067596 318 16012ft 346kts
28-Oct-20 13:19 45.403656 -82.136746 318 16016ft 347kts
28-Oct-20 13:20 45.486599 -82.206045 318 16021ft 347kts
28-Oct-20 13:21 45.569578 -82.275639 318 16029ft 347kts
28-Oct-20 13:22 45.652802 -82.345691 318 16031ft 347kts
28-Oct-20 13:23 45.735595 -82.415616 318 16038ft 347kts
28-Oct-20 13:24 45.817546 -82.488147 311 16051ft 340kts
28-Oct-20 13:25 45.880091 -82.584312 293 16048ft 323kts
28-Oct-20 13:26 45.933045 -82.689721 296 16047ft 325kts
28-Oct-20 13:27 45.986110 -82.795675 297 16053ft 327kts
28-Oct-20 13:28 46.039098 -82.901538 298 16061ft 328kts
28-Oct-20 13:29 46.092230 -83.007892 298 16063ft 328kts
28-Oct-20 13:30 46.145425 -83.114707 298 16073ft 329kts
28-Oct-20 13:31 46.198872 -83.222402 298 16081ft 330kts
28-Oct-20 13:32 46.252201 -83.330310 299 16087ft 331kts
28-Oct-20 13:33 46.305632 -83.438825 299 16093ft 332kts
28-Oct-20 13:34 46.359054 -83.547759 299 16114ft 334kts
28-Oct-20 13:35 46.403850 -83.663513 287 16123ft 328kts
28-Oct-20 13:36 46.424618 -83.791132 279 16109ft 327kts
28-Oct-20 13:37 46.443713 -83.920045 279 16119ft 328kts
28-Oct-20 13:38 46.462398 -84.049639 279 16120ft 329kts
28-Oct-20 13:39 46.480838 -84.179482 279 16119ft 330kts
28-Oct-20 13:40 46.499197 -84.310243 279 16126ft 331kts
28-Oct-20 13:41 46.517343 -84.440631 279 16129ft 333kts
28-Oct-20 13:42 46.535470 -84.572072 279 16135ft 334kts
28-Oct-20 13:43 46.562405 -84.701381 291 16134ft 339kts
28-Oct-20 13:44 46.609684 -84.820644 294 16139ft 340kts
28-Oct-20 13:45 46.655671 -84.940825 296 16143ft 342kts
28-Oct-20 13:46 46.704349 -85.059950 297 16150ft 342kts
28-Oct-20 13:47 46.751657 -85.180288 295 16156ft 343kts
28-Oct-20 13:48 46.798223 -85.301751 296 16163ft 343kts
28-Oct-20 13:49 46.844400 -85.423386 297 16169ft 344kts
28-Oct-20 13:50 46.890569 -85.545724 297 16174ft 344kts
28-Oct-20 13:51 46.936500 -85.667974 297 16181ft 344kts
28-Oct-20 13:52 46.982398 -85.790684 297 16188ft 344kts
28-Oct-20 13:53 47.028173 -85.913624 297 16194ft 344kts
28-Oct-20 13:54 47.073872 -86.036920 297 16200ft 344kts
28-Oct-20 13:55 47.119365 -86.160217 297 16207ft 344kts
28-Oct-20 13:56 47.164563 -86.283288 297 16215ft 344kts
28-Oct-20 13:57 47.209808 -86.407056 298 16239ft 343kts
28-Oct-20 13:58 47.254652 -86.530308 298 16249ft 343kts
28-Oct-20 13:59 47.299536 -86.654235 298 16255ft 343kts
28-Oct-20 14:00 47.344114 -86.777897 298 16245ft 343kts
28-Oct-20 14:01 47.388758 -86.902322 298 16243ft 343kts
28-Oct-20 14:02 47.433191 -87.026738 297 16247ft 343kts
28-Oct-20 14:03 47.477438 -87.151227 297 16252ft 343kts
28-Oct-20 14:04 47.521423 -87.275563 297 16256ft 342kts
28-Oct-20 14:05 47.565310 -87.400211 297 16260ft 342kts
28-Oct-20 14:06 47.609115 -87.525221 297 16263ft 342kts
28-Oct-20 14:07 47.652702 -87.650204 297 16267ft 342kts
28-Oct-20 14:08 47.696260 -87.775720 297 16270ft 341kts
28-Oct-20 14:09 47.739214 -87.900066 297 16276ft 341kts
28-Oct-20 14:10 47.782246 -88.025250 297 16281ft 341kts
28-Oct-20 14:11 47.825282 -88.151054 297 16285ft 341kts
28-Oct-20 14:12 47.867993 -88.276502 297 16290ft 340kts
28-Oct-20 14:13 47.910553 -88.402132 297 16294ft 340kts
28-Oct-20 14:14 47.952950 -88.527875 297 16301ft 340kts
28-Oct-20 14:16 47.995122 -88.653573 297 16307ft 340kts
28-Oct-20 14:17 48.037054 -88.779179 297 16310ft 339kts
28-Oct-20 14:18 48.079037 -88.905543 297 16316ft 339kts
28-Oct-20 14:19 48.120692 -89.031489 297 16320ft 339kts
28-Oct-20 14:20 48.162364 -89.157873 297 16327ft 339kts
28-Oct-20 14:21 48.203789 -89.284114 297 16333ft 339kts
28-Oct-20 14:22 48.244222 -89.411442 295 16339ft 339kts
28-Oct-20 14:23 48.289165 -89.535547 297 16335ft 340kts
28-Oct-20 14:24 48.333691 -89.660232 298 16362ft 340kts
28-Oct-20 14:25 48.377637 -89.784004 298 16350ft 341kts
28-Oct-20 14:26 48.422191 -89.909999 298 16365ft 342kts
28-Oct-20 14:27 48.466787 -90.036688 298 16370ft 343kts
28-Oct-20 14:28 48.511199 -90.163448 298 16367ft 344kts
28-Oct-20 14:28 48.548297 -90.269809 298 16371ft 344kts
28-Oct-20 14:30 48.600119 -90.419080 298 16376ft 345kts
28-Oct-20 14:30 48.637091 -90.526086 298 16372ft 344kts
28-Oct-20 14:32 48.688622 -90.676029 298 16380ft 345kts
28-Oct-20 14:32 48.725301 -90.783272 298 16382ft 345kts
28-Oct-20 14:34 48.776379 -90.933387 298 16385ft 345kts
28-Oct-20 14:34 48.812795 -91.040953 298 16394ft 345kts
28-Oct-20 14:35 48.856429 -91.170407 298 16389ft 345kts
28-Oct-20 14:37 48.907151 -91.321725 298 16390ft 345kts
28-Oct-20 14:37 48.943230 -91.429915 297 16387ft 345kts
28-Oct-20 14:38 48.986388 -91.559970 297 16388ft 344kts
28-Oct-20 14:39 49.029229 -91.689693 297 16396ft 344kts
28-Oct-20 14:40 49.071966 -91.819783 297 16391ft 344kts
28-Oct-20 14:41 49.114561 -91.950096 297 16394ft 344kts
28-Oct-20 14:42 49.157055 -92.080778 297 16398ft 344kts
28-Oct-20 14:43 49.199450 -92.211870 297 16079ft 343kts
28-Oct-20 14:44 49.240325 -92.338886 297 16003ft 323kts
28-Oct-20 14:45 49.279109 -92.460000 297 16002ft 312kts
28-Oct-20 14:46 49.316598 -92.577631 297 16005ft 305kts
28-Oct-20 14:47 49.353499 -92.693960 296 16014ft 302kts
28-Oct-20 14:48 49.390053 -92.809730 296 16006ft 301kts
28-Oct-20 14:49 49.426229 -92.924841 296 16006ft 299kts
28-Oct-20 14:50 49.462290 -93.040136 296 16011ft 299kts
28-Oct-20 14:51 49.498054 -93.154983 296 16006ft 298kts
28-Oct-20 14:52 49.533794 -93.270296 296 16010ft 298kts
28-Oct-20 14:53 49.569250 -93.385229 296 16004ft 298kts
28-Oct-20 14:54 49.604536 -93.500156 295 16011ft 298kts
28-Oct-20 14:55 49.639821 -93.615656 295 16012ft 298kts
28-Oct-20 14:56 49.675092 -93.731546 295 16007ft 297kts
28-Oct-20 14:57 49.710139 -93.847366 294 15751ft 304kts
28-Oct-20 14:58 49.745877 -93.965949 293 15510ft 301kts
28-Oct-20 14:59 49.780731 -94.082204 293 15507ft 295kts
28-Oct-20 15:00 49.814713 -94.196068 295 15856ft 284kts
28-Oct-20 15:01 49.847662 -94.307042 294 16001ft 288kts
28-Oct-20 15:02 49.881206 -94.420662 294 15997ft 292kts
28-Oct-20 15:03 49.921692 -94.529480 304 15983ft 295kts
28-Oct-20 15:04 49.966385 -94.636916 303 15979ft 297kts
28-Oct-20 15:05 50.011334 -94.744328 302 15968ft 298kts
28-Oct-20 15:06 50.056341 -94.852193 302 15959ft 299kts
28-Oct-20 15:07 50.101535 -94.960937 301 15954ft 299kts
28-Oct-20 15:08 50.146367 -95.069277 301 15989ft 298kts
28-Oct-20 15:09 50.191338 -95.178441 301 15983ft 299kts
28-Oct-20 15:10 50.236064 -95.287407 301 15976ft 299kts
28-Oct-20 15:11 50.280740 -95.396752 301 15967ft 300kts
28-Oct-20 15:12 50.325495 -95.506751 301 15960ft 300kts
28-Oct-20 15:13 50.369883 -95.616282 301 15994ft 299kts
28-Oct-20 15:14 50.414303 -95.726354 301 15987ft 299kts
28-Oct-20 15:15 50.458577 -95.836548 300 15976ft 299kts
28-Oct-20 15:16 50.502706 -95.946817 300 15973ft 299kts
28-Oct-20 15:17 50.546826 -96.057567 300 15963ft 300kts
28-Oct-20 15:18 50.590953 -96.168781 300 15956ft 300kts
28-Oct-20 15:19 50.634986 -96.280268 300 15950ft 300kts
28-Oct-20 15:20 50.678925 -96.391957 300 15942ft 301kts
28-Oct-20 15:21 50.722856 -96.504117 300 15933ft 301kts
28-Oct-20 15:22 50.766705 -96.616560 300 15924ft 301kts
28-Oct-20 15:23 50.810426 -96.729162 300 15917ft 302kts
28-Oct-20 15:24 50.854184 -96.842352 300 15909ft 302kts
28-Oct-20 15:25 50.897854 -96.955808 300 15903ft 302kts
28-Oct-20 15:26 50.941476 -97.069642 300 15897ft 302kts
28-Oct-20 15:27 50.985007 -97.183748 300 15888ft 303kts
28-Oct-20 15:28 51.028455 -97.298136 300 15893ft 302kts
28-Oct-20 15:29 51.071305 -97.411454 300 15990ft 301kts
28-Oct-20 15:30 51.114344 -97.525773 300 15988ft 302kts
28-Oct-20 15:31 51.157361 -97.640536 300 15983ft 303kts
28-Oct-20 15:32 51.200398 -97.755875 300 15973ft 304kts
28-Oct-20 15:33 51.243533 -97.872024 300 15973ft 305kts
28-Oct-20 15:34 51.286313 -97.987724 300 15976ft 294kts
28-Oct-20 15:35 51.326351 -98.096375 300 15977ft 281kts
28-Oct-20 15:36 51.365455 -98.203106 300 15994ft 280kts
28-Oct-20 15:37 51.404954 -98.311286 300 16006ft 279kts
28-Oct-20 15:38 51.444037 -98.418879 300 16000ft 286kts
28-Oct-20 15:39 51.484680 -98.531145 300 15984ft 295kts
28-Oct-20 15:40 51.525990 -98.645834 300 15991ft 299kts
28-Oct-20 15:41 51.567732 -98.762199 300 15979ft 302kts
28-Oct-20 15:42 51.609562 -98.879333 300 15976ft 303kts
28-Oct-20 15:43 51.651483 -98.997290 300 15972ft 304kts
28-Oct-20 15:44 51.693240 -99.115359 300 15994ft 303kts
28-Oct-20 15:45 51.734734 -99.233197 300 15996ft 304kts
28-Oct-20 15:46 51.776419 -99.352162 300 15994ft 304kts
28-Oct-20 15:47 51.817918 -99.471149 300 15995ft 304kts
28-Oct-20 15:48 51.859300 -99.590376 300 15994ft 305kts
28-Oct-20 15:49 51.900676 -99.710133 300 15993ft 305kts
28-Oct-20 15:50 51.941931 -99.830131 300 15994ft 305kts
28-Oct-20 15:51 51.982872 -99.950659 298 15994ft 306kts
28-Oct-20 15:52 52.012372 -100.080254 282 15996ft 311kts
28-Oct-20 15:53 52.031320 -100.216548 285 15994ft 311kts
28-Oct-20 15:54 52.050389 -100.353203 285 15992ft 311kts
28-Oct-20 15:55 52.069525 -100.490353 285 15993ft 312kts
28-Oct-20 15:56 52.088580 -100.627743 285 15992ft 312kts
28-Oct-20 15:57 52.107535 -100.765596 285 15987ft 314kts
28-Oct-20 15:58 52.126413 -100.904132 285 15988ft 315kts
28-Oct-20 15:59 52.145236 -101.043616 285 15993ft 315kts
28-Oct-20 16:00 52.163857 -101.182935 285 15999ft 316kts
28-Oct-20 16:01 52.182297 -101.322220 285 16003ft 316kts
28-Oct-20 16:02 52.200658 -101.462316 284 16003ft 317kts
28-Oct-20 16:03 52.218911 -101.602920 284 16006ft 317kts
28-Oct-20 16:04 52.236944 -101.743291 284 16010ft 317kts
28-Oct-20 16:05 52.254851 -101.884067 284 16019ft 317kts
28-Oct-20 16:06 52.272605 -102.025042 284 16020ft 318kts
28-Oct-20 16:07 52.290245 -102.166589 284 16026ft 319kts
28-Oct-20 16:08 52.307730 -102.308357 284 16023ft 318kts
28-Oct-20 16:09 52.324978 -102.449718 284 16025ft 318kts
28-Oct-20 16:11 52.342112 -102.591623 284 16028ft 318kts
28-Oct-20 16:12 52.359022 -102.733148 283 16029ft 317kts
28-Oct-20 16:13 52.375710 -102.874360 283 16028ft 317kts
28-Oct-20 16:14 52.392266 -103.015992 283 16035ft 317kts
28-Oct-20 16:15 52.408600 -103.157287 283 16035ft 316kts
28-Oct-20 16:16 52.424733 -103.298373 283 16035ft 316kts
28-Oct-20 16:17 52.440719 -103.439753 283 16034ft 316kts
28-Oct-20 16:18 52.456486 -103.580892 283 16037ft 315kts
28-Oct-20 16:19 52.471996 -103.721131 283 16038ft 315kts
28-Oct-20 16:20 52.487499 -103.863073 283 16040ft 314kts
28-Oct-20 16:21 52.502688 -104.003748 283 16040ft 313kts
28-Oct-20 16:22 52.517683 -104.144203 283 16044ft 313kts
28-Oct-20 16:23 52.532531 -104.284982 282 16043ft 312kts
28-Oct-20 16:24 52.547139 -104.425142 282 16043ft 312kts
28-Oct-20 16:25 52.561595 -104.565561 282 16000ft 312kts
28-Oct-20 16:26 52.575853 -104.705728 282 16005ft 311kts
28-Oct-20 16:26 52.587598 -104.822510 282 16005ft 311kts
28-Oct-20 16:28 52.603834 -104.985912 282 16003ft 310kts
28-Oct-20 16:28 52.615263 -105.102458 282 16004ft 310kts
28-Oct-20 16:29 52.628848 -105.242538 282 16007ft 310kts
28-Oct-20 16:30 52.642236 -105.382405 282 16000ft 310kts
28-Oct-20 16:31 52.655440 -105.522147 282 16006ft 309kts
28-Oct-20 16:32 52.668473 -105.661919 282 16003ft 309kts
28-Oct-20 16:33 52.681351 -105.801862 281 16002ft 309kts
28-Oct-20 16:34 52.694023 -105.941424 281 16005ft 309kts
28-Oct-20 16:35 52.706548 -106.081317 281 16007ft 309kts
28-Oct-20 16:36 52.718894 -106.221068 281 16001ft 308kts
28-Oct-20 16:37 52.731059 -106.360707 281 16001ft 308kts
28-Oct-20 16:38 52.749243 -106.497277 295 16000ft 304kts
28-Oct-20 16:39 52.777511 -106.628835 292 15999ft 304kts
28-Oct-20 16:40 52.805374 -106.760704 291 16000ft 304kts
28-Oct-20 16:41 52.832819 -106.892226 291 16000ft 304kts
28-Oct-20 16:42 52.860200 -107.024646 291 15998ft 304kts
28-Oct-20 16:43 52.887360 -107.156933 291 15991ft 303kts
28-Oct-20 16:44 52.914362 -107.289341 291 15998ft 303kts
28-Oct-20 16:45 52.941131 -107.421481 291 15999ft 303kts
28-Oct-20 16:46 52.967885 -107.554447 291 16007ft 304kts
28-Oct-20 16:47 52.994467 -107.687450 291 16001ft 304kts
28-Oct-20 16:48 53.020825 -107.820245 291 15998ft 304kts
28-Oct-20 16:49 53.047093 -107.953491 291 16002ft 304kts
28-Oct-20 16:50 53.073231 -108.086990 291 15999ft 304kts
28-Oct-20 16:51 53.099263 -108.220885 291 16000ft 305kts
28-Oct-20 16:52 53.125239 -108.355416 290 16001ft 306kts
28-Oct-20 16:53 53.151061 -108.490141 290 16000ft 306kts
28-Oct-20 16:54 53.176795 -108.625355 290 16001ft 307kts
28-Oct-20 16:55 53.202439 -108.761020 290 16002ft 307kts
28-Oct-20 16:56 53.227986 -108.897180 290 16002ft 308kts
28-Oct-20 16:57 53.253311 -109.033186 290 16007ft 308kts
28-Oct-20 16:58 53.278599 -109.169954 290 16017ft 309kts
28-Oct-20 16:59 53.303826 -109.307402 290 16012ft 309kts
28-Oct-20 17:00 53.328849 -109.444757 290 16010ft 310kts
28-Oct-20 17:01 53.353846 -109.583014 290 16012ft 311kts
28-Oct-20 17:02 53.378688 -109.721487 290 16007ft 311kts
28-Oct-20 17:03 53.403438 -109.860460 290 16009ft 311kts
28-Oct-20 17:04 53.427994 -109.999416 289 15999ft 312kts
28-Oct-20 17:05 53.452487 -110.139141 289 15999ft 312kts
28-Oct-20 17:06 53.476810 -110.278920 289 16001ft 313kts
28-Oct-20 17:07 53.501014 -110.419179 289 15999ft 313kts
28-Oct-20 17:08 53.525104 -110.559846 289 15996ft 314kts
28-Oct-20 17:09 53.549068 -110.700912 289 16005ft 314kts
28-Oct-20 17:10 53.572860 -110.842136 288 16004ft 314kts
28-Oct-20 17:11 53.596514 -110.983677 288 16005ft 315kts
28-Oct-20 17:12 53.620036 -111.125580 288 16006ft 315kts
28-Oct-20 17:13 53.643343 -111.267337 288 16003ft 315kts
28-Oct-20 17:14 53.666615 -111.410110 288 16005ft 315kts
28-Oct-20 17:15 53.689632 -111.552483 288 16001ft 314kts
28-Oct-20 17:16 53.712328 -111.694019 287 16005ft 313kts
28-Oct-20 17:17 53.734953 -111.836391 287 16013ft 314kts
28-Oct-20 17:18 53.757364 -111.978587 287 16013ft 314kts
28-Oct-20 17:19 53.779694 -112.121505 287 16015ft 315kts
28-Oct-20 17:20 53.801791 -112.264175 287 16018ft 315kts
28-Oct-20 17:21 53.823798 -112.407507 287 16019ft 314kts
28-Oct-20 17:22 53.845661 -112.551155 287 16023ft 315kts
28-Oct-20 17:23 53.867275 -112.694486 286 16005ft 315kts
28-Oct-20 17:24 53.888745 -112.838074 286 16001ft 315kts
28-Oct-20 17:25 53.910355 -112.984126 286 14198ft 309kts
28-Oct-20 17:26 53.926515 -113.121908 260 12223ft 297kts
28-Oct-20 17:27 53.864065 -113.205910 199 10269ft 297kts
28-Oct-20 17:28 53.798750 -113.242506 204 8294ft 238kts
28-Oct-20 17:29 53.738124 -113.277726 203 6411ft 220kts
28-Oct-20 17:30 53.684409 -113.309427 202 6016ft 208kts
28-Oct-20 17:31 53.628574 -113.342222 202 6010ft 213kts
28-Oct-20 17:32 53.571554 -113.368938 195 5706ft 207kts
28-Oct-20 17:33 53.519419 -113.390281 196 5043ft 189kts
28-Oct-20 17:34 53.471914 -113.423548 262 5049ft 186kts
28-Oct-20 17:35 53.502572 -113.491283 301 5005ft 199kts
28-Oct-20 17:36 53.476778 -113.535533 136 5047ft 218kts
28-Oct-20 17:37 53.468757 -113.437782 121 5027ft 222kts
28-Oct-20 17:38 53.430918 -113.463052 257 5020ft 197kts
28-Oct-20 17:39 53.408082 -113.545514 237 5001ft 210kts
28-Oct-20 17:40 53.373002 -113.625213 253 5002ft 215kts
28-Oct-20 17:41 53.400413 -113.705581 329 5003ft 215kts
28-Oct-20 17:42 53.456637 -113.721412 9 5000ft 210kts
28-Oct-20 17:43 53.504788 -113.669697 50 5000ft 212kts
28-Oct-20 17:44 53.521368 -113.577535 91 5002ft 212kts
28-Oct-20 17:45 53.499296 -113.488347 128 5005ft 211kts
28-Oct-20 17:46 53.459502 -113.425692 192 5050ft 199kts
28-Oct-20 17:47 53.414300 -113.473638 217 4875ft 203kts
28-Oct-20 17:48 53.373387 -113.520659 217 3197ft 135kts
28-Oct-20 17:49 53.341904 -113.557669 216 2508ft 132kts
28-Oct-20 17:50 53.325912 -113.576334 213 2333ft 0kts
28-Oct-20 17:51 53.326226 -113.575563 43 2334ft 10kts
28-Oct-20 17:52 53.325343 -113.573732 169 2335ft 5kts
28-Oct-20 17:53 53.323635 -113.574889 215 2335ft 9kts
28-Oct-20 17:54 53.322429 -113.573303 67 2334ft 8kts
28-Oct-20 17:55 53.322590 -113.570951 82 2335ft 3kts
28-Oct-20 17:56 53.322814 -113.570427 357 2335ft 0kts

Navigation Log

Ident Type
Flight plan parsing failed, navigation log unavailable